createdAt,value
2023-05-24T00:00:25.118Z,626.00
2023-05-24T00:01:25.129Z,623.00
2023-05-24T00:02:25.206Z,620.00
2023-05-24T00:03:25.360Z,618.00
2023-05-24T00:04:25.571Z,618.00
2023-05-24T00:05:25.258Z,616.00
2023-05-24T00:06:25.288Z,614.00
2023-05-24T00:07:25.315Z,611.00
2023-05-24T00:08:25.352Z,610.00
2023-05-24T00:09:25.386Z,611.00
2023-05-24T00:10:25.447Z,612.00
2023-05-24T00:11:25.491Z,611.00
2023-05-24T00:12:25.552Z,612.00
2023-05-24T00:13:25.613Z,613.00
2023-05-24T00:14:25.659Z,616.00
2023-05-24T00:15:25.695Z,618.00
2023-05-24T00:16:25.798Z,620.00
2023-05-24T00:17:25.827Z,619.00
2023-05-24T00:18:25.874Z,616.00
2023-05-24T00:19:25.968Z,614.00
2023-05-24T00:20:26.011Z,613.00
2023-05-24T00:21:26.039Z,617.00
2023-05-24T00:22:26.169Z,617.00
2023-05-24T00:23:26.141Z,621.00
2023-05-24T00:24:26.209Z,622.00
2023-05-24T00:25:26.255Z,622.00
2023-05-24T00:26:26.315Z,620.00
2023-05-24T00:27:26.365Z,625.00
2023-05-24T00:28:26.407Z,622.00
2023-05-24T00:29:26.475Z,621.00
2023-05-24T00:30:26.489Z,619.00
2023-05-24T00:31:26.581Z,619.00
2023-05-24T00:32:26.658Z,620.00
2023-05-24T00:33:26.674Z,618.00
2023-05-24T00:34:26.758Z,616.00
2023-05-24T00:35:26.794Z,613.00
2023-05-24T00:36:26.857Z,612.00
2023-05-24T00:37:26.911Z,609.00
2023-05-24T00:38:26.970Z,607.00
2023-05-24T00:39:27.026Z,607.00
2023-05-24T00:40:27.087Z,610.00
2023-05-24T00:41:27.146Z,613.00
2023-05-24T00:42:27.208Z,611.00
2023-05-24T00:43:27.267Z,613.00
2023-05-24T00:44:27.326Z,615.00
2023-05-24T00:45:27.403Z,613.00
2023-05-24T00:46:27.495Z,613.00
2023-05-24T00:47:27.551Z,614.00
2023-05-24T00:48:27.561Z,615.00
2023-05-24T00:49:27.615Z,615.00
2023-05-24T00:50:27.692Z,615.00
2023-05-24T00:51:27.739Z,615.00
2023-05-24T00:52:27.785Z,611.00
2023-05-24T00:53:27.855Z,611.00
2023-05-24T00:54:27.948Z,611.00
2023-05-24T00:55:27.961Z,610.00
2023-05-24T00:56:28.042Z,610.00
2023-05-24T00:57:28.086Z,607.00
2023-05-24T00:58:28.139Z,607.00
2023-05-24T00:59:28.200Z,608.00
2023-05-24T01:00:28.253Z,605.00
2023-05-24T01:01:28.363Z,603.00
2023-05-24T01:02:28.455Z,600.00
2023-05-24T01:03:28.553Z,599.00
2023-05-24T01:04:28.506Z,605.00
2023-05-24T01:05:28.573Z,605.00
2023-05-24T01:06:28.642Z,606.00
2023-05-24T01:07:28.694Z,602.00
2023-05-24T01:08:28.757Z,604.00
2023-05-24T01:09:28.830Z,604.00
2023-05-24T01:10:28.888Z,602.00
2023-05-24T01:11:28.941Z,603.00
2023-05-24T01:12:29.009Z,602.00
2023-05-24T01:13:29.074Z,602.00
2023-05-24T01:14:29.572Z,602.00
2023-05-24T01:15:29.224Z,601.00
2023-05-24T01:16:29.333Z,602.00
2023-05-24T01:17:29.365Z,606.00
2023-05-24T01:18:29.382Z,604.00
2023-05-24T01:19:29.438Z,604.00
2023-05-24T01:20:29.546Z,604.00
2023-05-24T01:21:29.614Z,602.00
2023-05-24T01:22:29.611Z,602.00
2023-05-24T01:23:29.678Z,602.00
2023-05-24T01:24:29.740Z,602.00
2023-05-24T01:25:29.857Z,601.00
2023-05-24T01:26:29.871Z,598.00
2023-05-24T01:27:29.929Z,597.00
2023-05-24T01:28:30.013Z,593.00
2023-05-24T01:29:30.047Z,593.00
2023-05-24T01:30:30.126Z,593.00
2023-05-24T01:31:30.232Z,594.00
2023-05-24T01:32:30.286Z,590.00
2023-05-24T01:33:30.328Z,586.00
2023-05-24T01:34:30.374Z,587.00
2023-05-24T01:35:30.422Z,588.00
2023-05-24T01:36:30.489Z,590.00
2023-05-24T01:37:30.537Z,590.00
2023-05-24T01:38:30.570Z,592.00
2023-05-24T01:39:30.620Z,593.00
2023-05-24T01:40:30.665Z,593.00
2023-05-24T01:41:30.732Z,595.00
2023-05-24T01:42:30.782Z,596.00
2023-05-24T01:43:30.834Z,597.00
2023-05-24T01:44:30.888Z,594.00
2023-05-24T01:45:30.949Z,596.00
2023-05-24T01:46:31.054Z,595.00
2023-05-24T01:47:31.056Z,596.00
2023-05-24T01:48:31.086Z,595.00
2023-05-24T01:49:31.171Z,592.00
2023-05-24T01:50:31.199Z,588.00
2023-05-24T01:51:31.239Z,585.00
2023-05-24T01:52:31.328Z,587.00
2023-05-24T01:53:31.344Z,583.00
2023-05-24T01:54:31.394Z,584.00
2023-05-24T01:55:31.438Z,586.00
2023-05-24T01:56:31.480Z,589.00
2023-05-24T01:57:31.527Z,588.00
2023-05-24T01:58:31.609Z,586.00
2023-05-24T01:59:31.638Z,585.00
2023-05-24T02:00:31.698Z,585.00
2023-05-24T02:01:31.973Z,586.00
2023-05-24T02:02:31.830Z,585.00
2023-05-24T02:03:31.849Z,587.00
2023-05-24T02:04:31.872Z,585.00
2023-05-24T02:05:32.378Z,586.00
2023-05-24T02:06:31.980Z,587.00
2023-05-24T02:07:32.012Z,588.00
2023-05-24T02:08:32.050Z,589.00
2023-05-24T02:09:33.086Z,589.00
2023-05-24T02:10:32.140Z,588.00
2023-05-24T02:11:32.184Z,593.00
2023-05-24T02:12:32.225Z,590.00
2023-05-24T02:13:32.264Z,586.00
2023-05-24T02:14:32.297Z,587.00
2023-05-24T02:15:32.334Z,587.00
2023-05-24T02:16:32.454Z,587.00
2023-05-24T02:17:32.481Z,590.00
2023-05-24T02:18:32.477Z,591.00
2023-05-24T02:19:32.503Z,590.00
2023-05-24T02:20:32.642Z,590.00
2023-05-24T02:21:32.648Z,587.00
2023-05-24T02:22:32.654Z,585.00
2023-05-24T02:23:32.710Z,585.00
2023-05-24T02:24:32.744Z,584.00
2023-05-24T02:25:32.797Z,585.00
2023-05-24T02:26:32.863Z,582.00
2023-05-24T02:27:32.912Z,585.00
2023-05-24T02:28:32.951Z,583.00
2023-05-24T02:29:33.004Z,582.00
2023-05-24T02:30:33.045Z,583.00
2023-05-24T02:31:33.262Z,583.00
2023-05-24T02:32:33.228Z,584.00
2023-05-24T02:33:33.178Z,585.00
2023-05-24T02:34:33.222Z,584.00
2023-05-24T02:35:33.280Z,588.00
2023-05-24T02:36:33.324Z,590.00
2023-05-24T02:37:33.401Z,590.00
2023-05-24T02:38:33.418Z,589.00
2023-05-24T02:39:33.495Z,587.00
2023-05-24T02:40:33.543Z,587.00
2023-05-24T02:41:33.605Z,588.00
2023-05-24T02:42:33.616Z,589.00
2023-05-24T02:43:33.655Z,589.00
2023-05-24T02:44:33.713Z,590.00
2023-05-24T02:45:33.738Z,588.00
2023-05-24T02:46:33.819Z,589.00
2023-05-24T02:47:33.873Z,590.00
2023-05-24T02:48:33.859Z,594.00
2023-05-24T02:49:33.904Z,592.00
2023-05-24T02:50:33.970Z,588.00
2023-05-24T02:51:34.003Z,585.00
2023-05-24T02:52:34.047Z,586.00
2023-05-24T02:53:34.108Z,585.00
2023-05-24T02:54:34.143Z,584.00
2023-05-24T02:55:34.163Z,584.00
2023-05-24T02:56:34.217Z,584.00
2023-05-24T02:57:34.292Z,585.00
2023-05-24T02:58:34.296Z,584.00
2023-05-24T02:59:34.332Z,581.00
2023-05-24T03:00:34.383Z,579.00
2023-05-24T03:01:35.229Z,577.00
2023-05-24T03:02:34.543Z,579.00
2023-05-24T03:03:34.696Z,579.00
2023-05-24T03:04:34.601Z,578.00
2023-05-24T03:05:34.646Z,575.00
2023-05-24T03:06:34.688Z,572.00
2023-05-24T03:07:34.759Z,570.00
2023-05-24T03:08:34.859Z,573.00
2023-05-24T03:09:34.885Z,572.00
2023-05-24T03:10:34.911Z,574.00
2023-05-24T03:11:34.971Z,573.00
2023-05-24T03:12:35.027Z,572.00
2023-05-24T03:13:35.063Z,570.00
2023-05-24T03:14:35.100Z,570.00
2023-05-24T03:15:35.148Z,567.00
2023-05-24T03:16:35.307Z,568.00
2023-05-24T03:17:35.282Z,569.00
2023-05-24T03:18:35.274Z,570.00
2023-05-24T03:19:35.327Z,567.00
2023-05-24T03:20:35.439Z,566.00
2023-05-24T03:21:35.416Z,562.00
2023-05-24T03:22:35.464Z,561.00
2023-05-24T03:23:35.507Z,561.00
2023-05-24T03:24:35.557Z,562.00
2023-05-24T03:25:35.626Z,562.00
2023-05-24T03:26:35.651Z,565.00
2023-05-24T03:27:35.700Z,567.00
2023-05-24T03:28:35.767Z,566.00
2023-05-24T03:29:35.803Z,564.00
2023-05-24T03:30:35.856Z,564.00
2023-05-24T03:31:35.947Z,564.00
2023-05-24T03:32:35.988Z,563.00
2023-05-24T03:33:36.020Z,562.00
2023-05-24T03:34:36.063Z,560.00
2023-05-24T03:35:36.106Z,560.00
2023-05-24T03:36:36.147Z,560.00
2023-05-24T03:37:36.203Z,562.00
2023-05-24T03:38:36.244Z,565.00
2023-05-24T03:39:36.335Z,565.00
2023-05-24T03:40:36.409Z,568.00
2023-05-24T03:41:36.450Z,567.00
2023-05-24T03:42:36.469Z,568.00
2023-05-24T03:43:36.512Z,566.00
2023-05-24T03:44:36.560Z,561.00
2023-05-24T03:45:39.687Z,560.00
2023-05-24T03:46:36.651Z,563.00
2023-05-24T03:47:36.657Z,563.00
2023-05-24T03:48:36.590Z,563.00
2023-05-24T03:49:36.599Z,562.00
2023-05-24T03:50:36.594Z,558.00
2023-05-24T03:51:36.563Z,560.00
2023-05-24T03:52:36.564Z,559.00
2023-05-24T03:53:36.554Z,559.00
2023-05-24T03:54:36.558Z,560.00
2023-05-24T03:55:36.536Z,556.00
2023-05-24T03:56:36.531Z,556.00
2023-05-24T03:57:36.544Z,552.00
2023-05-24T03:58:36.517Z,554.00
2023-05-24T03:59:36.832Z,555.00
2023-05-24T04:00:36.532Z,556.00
2023-05-24T04:01:36.497Z,552.00
2023-05-24T04:02:36.568Z,552.00
2023-05-24T04:03:36.551Z,552.00
2023-05-24T04:04:36.543Z,553.00
2023-05-24T04:05:36.608Z,552.00
2023-05-24T04:06:36.675Z,552.00
2023-05-24T04:07:36.684Z,553.00
2023-05-24T04:08:36.745Z,551.00
2023-05-24T04:09:36.782Z,550.00
2023-05-24T04:10:36.848Z,550.00
2023-05-24T04:11:36.865Z,550.00
2023-05-24T04:12:36.895Z,548.00
2023-05-24T04:13:36.956Z,545.00
2023-05-24T04:14:36.978Z,547.00
2023-05-24T04:15:37.037Z,547.00
2023-05-24T04:16:37.130Z,545.00
2023-05-24T04:17:37.293Z,547.00
2023-05-24T04:18:37.293Z,548.00
2023-05-24T04:19:37.164Z,549.00
2023-05-24T04:20:37.270Z,547.00
2023-05-24T04:21:37.204Z,547.00
2023-05-24T04:22:37.234Z,548.00
2023-05-24T04:23:37.267Z,548.00
2023-05-24T04:24:37.324Z,549.00
2023-05-24T04:25:37.362Z,548.00
2023-05-24T04:26:37.363Z,548.00
2023-05-24T04:27:37.441Z,549.00
2023-05-24T04:28:37.450Z,550.00
2023-05-24T04:29:37.535Z,551.00
2023-05-24T04:30:37.553Z,552.00
2023-05-24T04:31:37.720Z,550.00
2023-05-24T04:32:37.688Z,551.00
2023-05-24T04:33:37.719Z,547.00
2023-05-24T04:34:37.751Z,546.00
2023-05-24T04:35:37.795Z,545.00
2023-05-24T04:36:37.853Z,544.00
2023-05-24T04:37:37.903Z,543.00
2023-05-24T04:38:37.952Z,541.00
2023-05-24T04:39:38.023Z,543.00
2023-05-24T04:40:38.047Z,544.00
2023-05-24T04:41:38.085Z,542.00
2023-05-24T04:42:38.137Z,540.00
2023-05-24T04:43:38.191Z,540.00
2023-05-24T04:44:38.243Z,540.00
2023-05-24T04:45:38.316Z,543.00
2023-05-24T04:46:38.334Z,541.00
2023-05-24T04:47:38.400Z,541.00
2023-05-24T04:48:38.403Z,540.00
2023-05-24T04:49:38.446Z,542.00
2023-05-24T04:50:38.489Z,544.00
2023-05-24T04:51:38.757Z,542.00
2023-05-24T04:52:38.584Z,539.00
2023-05-24T04:53:38.635Z,537.00
2023-05-24T04:54:38.697Z,540.00
2023-05-24T04:55:38.738Z,537.00
2023-05-24T04:56:38.903Z,539.00
2023-05-24T04:57:38.834Z,535.00
2023-05-24T04:58:39.507Z,533.00
2023-05-24T04:59:38.942Z,534.00
2023-05-24T05:00:39.043Z,534.00
2023-05-24T05:01:39.091Z,530.00
2023-05-24T05:02:39.157Z,531.00
2023-05-24T05:03:39.209Z,530.00
2023-05-24T05:04:39.211Z,530.00
2023-05-24T05:05:39.252Z,531.00
2023-05-24T05:06:39.302Z,531.00
2023-05-24T05:07:39.353Z,529.00
2023-05-24T05:08:39.411Z,533.00
2023-05-24T05:09:39.475Z,531.00
2023-05-24T05:10:39.571Z,529.00
2023-05-24T05:11:39.567Z,527.00
2023-05-24T05:12:39.608Z,527.00
2023-05-24T05:13:39.657Z,532.00
2023-05-24T05:14:39.703Z,530.00
2023-05-24T05:15:41.605Z,530.00
2023-05-24T05:16:39.757Z,533.00
2023-05-24T05:17:39.787Z,531.00
2023-05-24T05:18:39.716Z,528.00
2023-05-24T05:19:39.730Z,527.00
2023-05-24T05:20:40.341Z,532.00
2023-05-24T05:21:39.707Z,534.00
2023-05-24T05:22:39.678Z,539.00
2023-05-24T05:23:39.696Z,542.00
2023-05-24T05:24:39.684Z,545.00
2023-05-24T05:25:39.701Z,547.00
2023-05-24T05:26:39.707Z,557.00
2023-05-24T05:27:40.200Z,568.00
2023-05-24T05:28:39.846Z,573.00
2023-05-24T05:29:39.636Z,578.00
2023-05-24T05:30:39.961Z,585.00
2023-05-24T05:31:39.674Z,595.00
2023-05-24T05:32:39.653Z,601.00
2023-05-24T05:33:39.674Z,623.00
2023-05-24T05:34:39.814Z,640.00
2023-05-24T05:35:39.742Z,649.00
2023-05-24T05:36:40.192Z,662.00
2023-05-24T05:37:40.688Z,669.00
2023-05-24T05:38:39.864Z,682.00
2023-05-24T05:39:39.948Z,689.00
2023-05-24T05:40:40.164Z,700.00
2023-05-24T05:41:40.723Z,709.00
2023-05-24T05:42:40.073Z,726.00
2023-05-24T05:43:40.137Z,727.00
2023-05-24T05:44:40.701Z,729.00
2023-05-24T05:45:40.308Z,740.00
2023-05-24T05:46:40.776Z,743.00
2023-05-24T05:47:40.407Z,750.00
2023-05-24T05:48:40.609Z,756.00
2023-05-24T05:49:43.731Z,784.00
2023-05-24T05:50:40.668Z,788.00
2023-05-24T05:51:40.883Z,785.00
2023-05-24T05:52:40.491Z,799.00
2023-05-24T05:53:43.683Z,807.00
2023-05-24T05:54:43.938Z,819.00
2023-05-24T05:55:40.463Z,833.00
2023-05-24T05:57:56.084Z,901.00
2023-05-24T05:58:43.648Z,889.00
2023-05-24T06:00:47.902Z,870.00
2023-05-24T06:04:47.885Z,823.00
2023-05-24T06:05:40.389Z,831.00
2023-05-24T06:07:12.530Z,842.00
2023-05-24T06:07:40.389Z,845.00
2023-05-24T06:08:40.382Z,847.00
2023-05-24T06:09:40.388Z,850.00
2023-05-24T06:10:40.639Z,847.00
2023-05-24T06:11:40.717Z,846.00
2023-05-24T06:12:40.712Z,844.00
2023-05-24T06:13:40.343Z,841.00
2023-05-24T06:14:40.330Z,843.00
2023-05-24T06:15:40.328Z,843.00
2023-05-24T06:16:40.341Z,839.00
2023-05-24T06:17:40.356Z,839.00
2023-05-24T06:18:45.062Z,837.00
2023-05-24T06:19:40.295Z,838.00
2023-05-24T06:20:40.457Z,840.00
2023-05-24T06:21:40.296Z,839.00
2023-05-24T06:22:40.717Z,839.00
2023-05-24T06:23:40.271Z,835.00
2023-05-24T06:24:40.711Z,834.00
2023-05-24T06:25:40.262Z,836.00
2023-05-24T06:26:40.281Z,832.00
2023-05-24T06:27:40.250Z,831.00
2023-05-24T06:29:12.042Z,828.00
2023-05-24T06:29:40.292Z,829.00
2023-05-24T06:30:40.390Z,827.00
2023-05-24T06:31:40.250Z,829.00
2023-05-24T06:32:40.304Z,830.00
2023-05-24T06:33:42.668Z,830.00
2023-05-24T06:34:40.193Z,828.00
2023-05-24T06:35:40.188Z,825.00
2023-05-24T06:36:40.248Z,825.00
2023-05-24T06:37:40.207Z,825.00
2023-05-24T06:38:40.175Z,827.00
2023-05-24T06:39:40.221Z,824.00
2023-05-24T06:40:40.440Z,820.00
2023-05-24T06:41:40.217Z,820.00
2023-05-24T06:42:40.151Z,818.00
2023-05-24T06:43:40.146Z,819.00
2023-05-24T06:44:40.138Z,817.00
2023-05-24T06:45:41.134Z,816.00
2023-05-24T06:46:40.252Z,819.00
2023-05-24T06:47:40.175Z,816.00
2023-05-24T06:48:43.467Z,815.00
2023-05-24T06:49:40.125Z,806.00
2023-05-24T06:50:42.444Z,800.00
2023-05-24T06:51:40.249Z,798.00
2023-05-24T06:52:40.110Z,797.00
2023-05-24T06:53:40.080Z,788.00
2023-05-24T06:54:40.065Z,781.00
2023-05-24T06:55:40.064Z,771.00
2023-05-24T06:56:41.229Z,775.00
2023-05-24T06:57:40.040Z,775.00
2023-05-24T06:58:40.075Z,778.00
2023-05-24T06:59:40.025Z,776.00
2023-05-24T07:01:12.094Z,769.00
2023-05-24T07:01:40.048Z,694.00
2023-05-24T07:02:40.080Z,682.00
2023-05-24T07:03:40.006Z,673.00
2023-05-24T07:04:40.202Z,671.00
2023-05-24T07:05:39.993Z,735.00
2023-05-24T07:06:40.238Z,720.00
2023-05-24T07:07:40.232Z,719.00
2023-05-24T07:08:39.996Z,679.00
2023-05-24T07:09:40.051Z,677.00
2023-05-24T07:10:40.047Z,676.00
2023-05-24T07:11:40.266Z,669.00
2023-05-24T07:12:39.955Z,646.00
2023-05-24T07:13:40.236Z,642.00
2023-05-24T07:14:39.918Z,642.00
2023-05-24T07:15:39.916Z,679.00
2023-05-24T07:16:39.939Z,673.00
2023-05-24T07:17:40.292Z,682.00
2023-05-24T07:18:39.881Z,668.00
2023-05-24T07:19:39.875Z,647.00
2023-05-24T07:20:40.055Z,639.00
2023-05-24T07:21:40.265Z,662.00
2023-05-24T07:22:39.875Z,674.00
2023-05-24T07:23:40.361Z,672.00
2023-05-24T07:24:40.094Z,672.00
2023-05-24T07:25:39.830Z,674.00
2023-05-24T07:26:39.822Z,672.00
2023-05-24T07:27:40.238Z,672.00
2023-05-24T07:28:39.924Z,667.00
2023-05-24T07:29:39.973Z,624.00
2023-05-24T07:30:40.011Z,637.00
2023-05-24T07:31:41.139Z,630.00
2023-05-24T07:32:40.210Z,618.00
2023-05-24T07:33:42.281Z,631.00
2023-05-24T07:34:40.148Z,636.00
2023-05-24T07:35:43.328Z,737.00
2023-05-24T07:36:40.102Z,768.00
2023-05-24T07:37:48.032Z,792.00
2023-05-24T07:38:43.683Z,815.00
2023-05-24T07:39:40.223Z,856.00
2023-05-24T07:40:55.921Z,886.00
2023-05-24T07:41:40.411Z,909.00
2023-05-24T07:42:40.383Z,942.00
2023-05-24T07:43:41.309Z,965.00
2023-05-24T07:44:47.770Z,1017.00
2023-05-24T07:45:43.501Z,1040.00
2023-05-24T07:46:40.185Z,1059.00
2023-05-24T07:47:43.482Z,1079.00
2023-05-24T07:48:40.040Z,1092.00
2023-05-24T07:49:40.287Z,985.00
2023-05-24T07:50:40.148Z,972.00
2023-05-24T07:51:40.030Z,912.00
2023-05-24T07:52:40.028Z,919.00
2023-05-24T07:53:47.487Z,909.00
2023-05-24T07:54:40.258Z,912.00
2023-05-24T07:55:41.555Z,912.00
2023-05-24T07:59:40.474Z,903.00
2023-05-24T08:00:40.252Z,903.00
2023-05-24T08:01:40.260Z,884.00
2023-05-24T08:02:43.491Z,888.00
2023-05-24T08:03:40.620Z,882.00
2023-05-24T08:04:40.184Z,874.00
2023-05-24T08:05:40.403Z,865.00
2023-05-24T08:06:40.287Z,865.00
2023-05-24T08:07:40.270Z,847.00
2023-05-24T08:08:40.158Z,838.00
2023-05-24T08:09:40.275Z,845.00
2023-05-24T08:10:40.275Z,846.00
2023-05-24T08:11:40.301Z,842.00
2023-05-24T08:12:40.149Z,843.00
2023-05-24T08:13:40.224Z,845.00
2023-05-24T08:14:40.117Z,848.00
2023-05-24T08:15:40.499Z,849.00
2023-05-24T08:16:40.378Z,850.00
2023-05-24T08:17:40.191Z,854.00
2023-05-24T08:18:40.135Z,857.00
2023-05-24T08:19:40.126Z,860.00
2023-05-24T08:20:40.659Z,856.00
2023-05-24T08:21:40.277Z,852.00
2023-05-24T08:22:40.064Z,845.00
2023-05-24T08:23:40.066Z,838.00
2023-05-24T08:24:40.049Z,839.00
2023-05-24T08:25:40.054Z,841.00
2023-05-24T08:26:40.041Z,823.00
2023-05-24T08:27:40.062Z,822.00
2023-05-24T08:28:40.198Z,826.00
2023-05-24T08:29:40.030Z,836.00
2023-05-24T08:30:40.032Z,824.00
2023-05-24T08:31:40.651Z,824.00
2023-05-24T08:32:40.032Z,814.00
2023-05-24T08:33:40.002Z,810.00
2023-05-24T08:34:40.003Z,809.00
2023-05-24T08:35:40.189Z,807.00
2023-05-24T08:36:40.286Z,806.00
2023-05-24T08:37:40.167Z,807.00
2023-05-24T08:38:40.228Z,803.00
2023-05-24T08:39:40.780Z,803.00
2023-05-24T08:40:40.780Z,794.00
2023-05-24T08:41:41.282Z,782.00
2023-05-24T08:42:40.343Z,774.00
2023-05-24T08:43:40.371Z,757.00
2023-05-24T08:44:43.581Z,738.00
2023-05-24T08:45:40.998Z,730.00
2023-05-24T08:46:41.450Z,727.00
2023-05-24T08:47:40.953Z,725.00
2023-05-24T08:48:41.356Z,712.00
2023-05-24T08:49:40.363Z,702.00
2023-05-24T08:50:40.791Z,686.00
2023-05-24T08:51:40.336Z,687.00
2023-05-24T08:52:47.729Z,699.00
2023-05-24T08:53:40.790Z,705.00
2023-05-24T08:54:40.309Z,709.00
2023-05-24T08:55:40.607Z,718.00
2023-05-24T08:56:40.306Z,726.00
2023-05-24T08:57:41.753Z,731.00
2023-05-24T08:58:40.414Z,732.00
2023-05-24T08:59:40.477Z,731.00
2023-05-24T09:00:40.545Z,729.00
2023-05-24T09:01:42.085Z,729.00
2023-05-24T09:02:40.751Z,731.00
2023-05-24T09:03:40.900Z,738.00
2023-05-24T09:04:40.793Z,743.00
2023-05-24T09:05:41.070Z,740.00
2023-05-24T09:06:40.894Z,737.00
2023-05-24T09:07:41.622Z,747.00
2023-05-24T09:08:43.633Z,747.00
2023-05-24T09:09:41.180Z,761.00
2023-05-24T09:10:53.116Z,768.00
2023-05-24T09:11:40.987Z,760.00
2023-05-24T09:12:40.976Z,757.00
2023-05-24T09:13:40.977Z,769.00
2023-05-24T09:14:41.297Z,777.00
2023-05-24T09:15:41.412Z,774.00
2023-05-24T09:16:40.965Z,769.00
2023-05-24T09:17:40.976Z,767.00
2023-05-24T09:18:40.943Z,769.00
2023-05-24T09:19:41.324Z,770.00
2023-05-24T09:20:41.142Z,768.00
2023-05-24T09:21:41.090Z,777.00
2023-05-24T09:22:42.100Z,780.00
2023-05-24T09:23:41.007Z,772.00
2023-05-24T09:24:41.075Z,777.00
2023-05-24T09:25:44.299Z,790.00
2023-05-24T09:26:41.294Z,777.00
2023-05-24T09:27:41.086Z,772.00
2023-05-24T09:28:41.084Z,765.00
2023-05-24T09:29:41.074Z,758.00
2023-05-24T09:30:42.311Z,765.00
2023-05-24T09:31:42.349Z,778.00
2023-05-24T09:32:41.122Z,718.00
2023-05-24T09:33:41.112Z,666.00
2023-05-24T09:34:41.143Z,678.00
2023-05-24T09:35:41.246Z,696.00
2023-05-24T09:36:41.306Z,703.00
2023-05-24T09:37:41.310Z,712.00
2023-05-24T09:38:41.319Z,708.00
2023-05-24T09:39:41.802Z,710.00
2023-05-24T09:40:44.606Z,715.00
2023-05-24T09:41:41.811Z,726.00
2023-05-24T09:42:41.341Z,737.00
2023-05-24T09:43:41.333Z,730.00
2023-05-24T09:44:41.328Z,731.00
2023-05-24T09:45:41.324Z,743.00
2023-05-24T09:46:41.877Z,749.00
2023-05-24T09:47:41.363Z,752.00
2023-05-24T09:48:41.293Z,753.00
2023-05-24T09:49:41.324Z,749.00
2023-05-24T09:50:41.529Z,746.00
2023-05-24T09:51:41.478Z,737.00
2023-05-24T09:52:41.276Z,732.00
2023-05-24T09:53:41.257Z,736.00
2023-05-24T09:54:41.309Z,729.00
2023-05-24T09:55:44.453Z,720.00
2023-05-24T09:56:41.335Z,715.00
2023-05-24T09:57:41.235Z,715.00
2023-05-24T09:58:41.220Z,715.00
2023-05-24T09:59:41.225Z,724.00
2023-05-24T10:00:41.646Z,735.00
2023-05-24T10:01:41.227Z,745.00
2023-05-24T10:02:51.855Z,748.00
2023-05-24T10:03:41.460Z,747.00
2023-05-24T10:04:41.289Z,747.00
2023-05-24T10:05:41.331Z,742.00
2023-05-24T10:06:41.324Z,733.00
2023-05-24T10:07:41.268Z,737.00
2023-05-24T10:08:41.320Z,737.00
2023-05-24T10:09:41.180Z,739.00
2023-05-24T10:10:41.269Z,738.00
2023-05-24T10:11:41.141Z,735.00
2023-05-24T10:12:41.317Z,731.00
2023-05-24T10:13:41.153Z,731.00
2023-05-24T10:14:41.111Z,730.00
2023-05-24T10:15:41.117Z,727.00
2023-05-24T10:16:41.156Z,730.00
2023-05-24T10:17:41.369Z,741.00
2023-05-24T10:18:41.086Z,738.00
2023-05-24T10:19:41.086Z,738.00
2023-05-24T10:20:42.161Z,738.00
2023-05-24T10:21:41.104Z,743.00
2023-05-24T10:22:41.327Z,743.00
2023-05-24T10:23:41.199Z,744.00
2023-05-24T10:24:41.197Z,750.00
2023-05-24T10:25:41.228Z,751.00
2023-05-24T10:26:41.353Z,751.00
2023-05-24T10:27:41.329Z,751.00
2023-05-24T10:28:41.669Z,751.00
2023-05-24T10:29:41.379Z,754.00
2023-05-24T10:30:41.432Z,757.00
2023-05-24T10:31:41.533Z,759.00
2023-05-24T10:32:41.876Z,761.00
2023-05-24T10:33:41.524Z,754.00
2023-05-24T10:34:41.548Z,750.00
2023-05-24T10:35:41.841Z,750.00
2023-05-24T10:36:41.650Z,745.00
2023-05-24T10:37:41.877Z,743.00
2023-05-24T10:38:41.735Z,741.00
2023-05-24T10:39:41.911Z,739.00
2023-05-24T10:40:41.822Z,737.00
2023-05-24T10:41:41.889Z,742.00
2023-05-24T10:42:41.890Z,740.00
2023-05-24T10:43:43.976Z,752.00
2023-05-24T10:44:41.940Z,802.00
2023-05-24T10:45:41.951Z,814.00
2023-05-24T10:46:41.985Z,831.00
2023-05-24T10:47:42.421Z,871.00
2023-05-24T10:48:41.922Z,897.00
2023-05-24T10:49:41.916Z,941.00
2023-05-24T10:50:42.374Z,966.00
2023-05-24T10:51:41.920Z,982.00
2023-05-24T10:52:41.901Z,1014.00
2023-05-24T10:53:41.893Z,1044.00
2023-05-24T10:54:52.653Z,1065.00
2023-05-24T10:55:41.904Z,1107.00
2023-05-24T10:56:41.862Z,1119.00
2023-05-24T10:57:41.862Z,1147.00
2023-05-24T10:58:41.995Z,1157.00
2023-05-24T10:59:41.844Z,1211.00
2023-05-24T11:00:41.835Z,1237.00
2023-05-24T11:01:41.863Z,1250.00
2023-05-24T11:02:41.880Z,1265.00
2023-05-24T11:03:41.807Z,1290.00
2023-05-24T11:04:41.825Z,1361.00
2023-05-24T11:05:43.200Z,1369.00
2023-05-24T11:06:41.788Z,1376.00
2023-05-24T11:07:41.849Z,1401.00
2023-05-24T11:08:41.777Z,1427.00
2023-05-24T11:09:41.782Z,1429.00
2023-05-24T11:10:43.121Z,1300.00
2023-05-24T11:11:41.900Z,1403.00
2023-05-24T11:12:41.903Z,1439.00
2023-05-24T11:13:41.963Z,1445.00
2023-05-24T11:14:41.971Z,1433.00
2023-05-24T11:15:41.997Z,1406.00
2023-05-24T11:16:42.503Z,1396.00
2023-05-24T11:17:43.570Z,1397.00
2023-05-24T11:18:42.364Z,1395.00
2023-05-24T11:19:42.281Z,1396.00
2023-05-24T11:20:42.687Z,1398.00
2023-05-24T11:21:42.360Z,1401.00
2023-05-24T11:22:42.421Z,1405.00
2023-05-24T11:23:42.420Z,1398.00
2023-05-24T11:24:42.488Z,1395.00
2023-05-24T11:25:42.510Z,1394.00
2023-05-24T11:26:42.552Z,1396.00
2023-05-24T11:27:42.622Z,1392.00
2023-05-24T11:28:42.651Z,1394.00
2023-05-24T11:29:42.676Z,1398.00
2023-05-24T11:30:42.964Z,1399.00
2023-05-24T11:31:44.689Z,1401.00
2023-05-24T11:32:42.833Z,1404.00
2023-05-24T11:33:42.758Z,1407.00
2023-05-24T11:34:42.861Z,1402.00
2023-05-24T11:35:42.735Z,1412.00
2023-05-24T11:36:42.733Z,1408.00
2023-05-24T11:37:46.716Z,1398.00
2023-05-24T11:38:42.723Z,1398.00
2023-05-24T11:39:42.825Z,1398.00
2023-05-24T11:40:42.922Z,1353.00
2023-05-24T11:41:42.841Z,1360.00
2023-05-24T11:42:42.682Z,1344.00
2023-05-24T11:43:42.754Z,1220.00
2023-05-24T11:44:42.777Z,1087.00
2023-05-24T11:45:42.949Z,1061.00
2023-05-24T11:46:42.884Z,938.00
2023-05-24T11:47:42.905Z,907.00
2023-05-24T11:48:42.869Z,815.00
2023-05-24T11:49:42.889Z,788.00
2023-05-24T11:50:49.397Z,765.00
2023-05-24T11:51:43.415Z,719.00
2023-05-24T11:52:42.910Z,713.00
2023-05-24T11:53:43.166Z,689.00
2023-05-24T11:54:43.371Z,679.00
2023-05-24T11:55:43.104Z,667.00
2023-05-24T11:56:42.874Z,661.00
2023-05-24T11:57:42.869Z,547.00
2023-05-24T11:58:42.868Z,613.00
2023-05-24T11:59:42.970Z,635.00
2023-05-24T12:00:50.252Z,544.00
2023-05-24T12:01:42.888Z,522.00
2023-05-24T12:02:42.935Z,489.00
2023-05-24T12:03:42.942Z,501.00
2023-05-24T12:04:42.945Z,506.00
2023-05-24T12:05:43.816Z,509.00
2023-05-24T12:06:42.900Z,546.00
2023-05-24T12:07:42.815Z,567.00
2023-05-24T12:08:42.804Z,613.00
2023-05-24T12:09:42.808Z,645.00
2023-05-24T12:10:43.197Z,658.00
2023-05-24T12:11:43.480Z,669.00
2023-05-24T12:12:46.015Z,736.00
2023-05-24T12:13:42.770Z,742.00
2023-05-24T12:14:42.773Z,753.00
2023-05-24T12:15:42.869Z,814.00
2023-05-24T12:16:42.751Z,829.00
2023-05-24T12:17:42.798Z,850.00
2023-05-24T12:18:55.094Z,895.00
2023-05-24T12:19:42.726Z,922.00
2023-05-24T12:20:43.002Z,946.00
2023-05-24T12:21:42.757Z,983.00
2023-05-24T12:22:42.713Z,1022.00
2023-05-24T12:23:42.713Z,1050.00
2023-05-24T12:24:42.716Z,1068.00
2023-05-24T12:25:42.684Z,1099.00
2023-05-24T12:26:42.960Z,1148.00
2023-05-24T12:27:42.670Z,1157.00
2023-05-24T12:28:42.671Z,1172.00
2023-05-24T12:29:42.882Z,1205.00
2023-05-24T12:30:42.870Z,1226.00
2023-05-24T12:31:43.107Z,1242.00
2023-05-24T12:32:42.674Z,1281.00
2023-05-24T12:33:42.622Z,1302.00
2023-05-24T12:34:42.762Z,1333.00